Terminal Aerodrome Forecast
Issued by NWS

Home | Current Version | Previous Version | Text Only | Print | Product List | Glossary On
Versions: 1 2 3 4 5 6 7 8 9 10 11 12 13 14 15 16
851
FTPA31 PHFO 310541
TAFHLI
TAF
PHLI 310541Z 3106/0106 05015KT P6SM SCT025
     FM311300 05012KT P6SM VCSH SCT018 BKN035=

USA.gov is the U.S. government's official web portal to all federal, state and local government web resources and services.